﻿<?xml version="1.0" encoding="UTF-8" standalone="no" ?>
<gpx xmlns="http://www.topografix.com/GPX/1/1" creator="CompeGPS" version="1.1" xmlns:xsi="http://www.w3.org/2001/XMLSchema-instance" xsi:schemaLocation="http://www.topografix.com/GPX/1/1 http://www.topografix.com/GPX/1/1/gpx.xsd http://www.garmin.com/xmlschemas/GpxExtensions/v3 http://www.garmin.com/xmlschemas/GpxExtensionsv3.xsd http://www.garmin.com/xmlschemas/TrackPointExtension/v1 http://www.garmin.com/xmlschemas/TrackPointExtensionv1.xsd" xmlns:gpxtpx="http://www.garmin.com/xmlschemas/TrackPointExtension/v1">
  <metadata>
    <link href="http://www.compegps.com">
      <text>CompeGPS TEAM, SL</text>
    </link>
    <time>2015-08-13T20:08:41Z</time>
    <bounds maxlat="43.324504" maxlon="1.807094" minlat="43.306242" minlon="1.781638"/>
  </metadata>
  <trk>
    <name>ganguise</name>
    <trkseg>
      <trkpt lat="43.323388" lon="1.790897">
        <ele>245.0</ele>
        <time>2015-08-04T14:44:04Z</time>
      </trkpt>
      <trkpt lat="43.323468" lon="1.790964">
        <ele>245.2</ele>
        <time>2015-08-04T14:44:08Z</time>
      </trkpt>
      <trkpt lat="43.323558" lon="1.791043">
        <ele>244.5</ele>
        <time>2015-08-04T14:44:13Z</time>
      </trkpt>
      <trkpt lat="43.323547" lon="1.791168">
        <ele>243.9</ele>
        <time>2015-08-04T14:44:19Z</time>
      </trkpt>
      <trkpt lat="43.323480" lon="1.791266">
        <ele>243.2</ele>
        <time>2015-08-04T14:44:24Z</time>
      </trkpt>
      <trkpt lat="43.323411" lon="1.791348">
        <ele>243.1</ele>
        <time>2015-08-04T14:44:28Z</time>
      </trkpt>
      <trkpt lat="43.323333" lon="1.791449">
        <ele>242.8</ele>
        <time>2015-08-04T14:44:32Z</time>
      </trkpt>
      <trkpt lat="43.323244" lon="1.791581">
        <ele>242.7</ele>
        <time>2015-08-04T14:44:36Z</time>
      </trkpt>
      <trkpt lat="43.323175" lon="1.791677">
        <ele>242.9</ele>
        <time>2015-08-04T14:44:40Z</time>
      </trkpt>
      <trkpt lat="43.323077" lon="1.791759">
        <ele>244.1</ele>
        <time>2015-08-04T14:44:44Z</time>
      </trkpt>
      <trkpt lat="43.322957" lon="1.791774">
        <ele>245.1</ele>
        <time>2015-08-04T14:44:48Z</time>
      </trkpt>
      <trkpt lat="43.322853" lon="1.791738">
        <ele>245.7</ele>
        <time>2015-08-04T14:44:52Z</time>
      </trkpt>
      <trkpt lat="43.322757" lon="1.791671">
        <ele>247.1</ele>
        <time>2015-08-04T14:44:56Z</time>
      </trkpt>
      <trkpt lat="43.322668" lon="1.791592">
        <ele>247.9</ele>
        <time>2015-08-04T14:45:00Z</time>
      </trkpt>
      <trkpt lat="43.322587" lon="1.791528">
        <ele>248.4</ele>
        <time>2015-08-04T14:45:04Z</time>
      </trkpt>
      <trkpt lat="43.322509" lon="1.791451">
        <ele>250.0</ele>
        <time>2015-08-04T14:45:08Z</time>
      </trkpt>
      <trkpt lat="43.322415" lon="1.791366">
        <ele>252.5</ele>
        <time>2015-08-04T14:45:13Z</time>
      </trkpt>
      <trkpt lat="43.322337" lon="1.791281">
        <ele>253.6</ele>
        <time>2015-08-04T14:45:17Z</time>
      </trkpt>
      <trkpt lat="43.322274" lon="1.791172">
        <ele>254.5</ele>
        <time>2015-08-04T14:45:21Z</time>
      </trkpt>
      <trkpt lat="43.322244" lon="1.791046">
        <ele>255.1</ele>
        <time>2015-08-04T14:45:25Z</time>
      </trkpt>
      <trkpt lat="43.322253" lon="1.790900">
        <ele>256.7</ele>
        <time>2015-08-04T14:45:30Z</time>
      </trkpt>
      <trkpt lat="43.322274" lon="1.790750">
        <ele>258.3</ele>
        <time>2015-08-04T14:45:35Z</time>
      </trkpt>
      <trkpt lat="43.322251" lon="1.790584">
        <ele>259.6</ele>
        <time>2015-08-04T14:45:41Z</time>
      </trkpt>
      <trkpt lat="43.322222" lon="1.790460">
        <ele>260.2</ele>
        <time>2015-08-04T14:45:45Z</time>
      </trkpt>
      <trkpt lat="43.322170" lon="1.790354">
        <ele>261.8</ele>
        <time>2015-08-04T14:45:49Z</time>
      </trkpt>
      <trkpt lat="43.322120" lon="1.790235">
        <ele>262.1</ele>
        <time>2015-08-04T14:45:53Z</time>
      </trkpt>
      <trkpt lat="43.322082" lon="1.790108">
        <ele>262.7</ele>
        <time>2015-08-04T14:45:57Z</time>
      </trkpt>
      <trkpt lat="43.322044" lon="1.789986">
        <ele>264.1</ele>
        <time>2015-08-04T14:46:01Z</time>
      </trkpt>
      <trkpt lat="43.321991" lon="1.789880">
        <ele>265.3</ele>
        <time>2015-08-04T14:46:05Z</time>
      </trkpt>
      <trkpt lat="43.321944" lon="1.789776">
        <ele>265.3</ele>
        <time>2015-08-04T14:46:09Z</time>
      </trkpt>
      <trkpt lat="43.321902" lon="1.789649">
        <ele>266.6</ele>
        <time>2015-08-04T14:46:14Z</time>
      </trkpt>
      <trkpt lat="43.321824" lon="1.789576">
        <ele>266.8</ele>
        <time>2015-08-04T14:46:19Z</time>
      </trkpt>
      <trkpt lat="43.321733" lon="1.789611">
        <ele>267.4</ele>
        <time>2015-08-04T14:46:23Z</time>
      </trkpt>
      <trkpt lat="43.321674" lon="1.789700">
        <ele>266.5</ele>
        <time>2015-08-04T14:46:27Z</time>
      </trkpt>
      <trkpt lat="43.321619" lon="1.789803">
        <ele>266.8</ele>
        <time>2015-08-04T14:46:31Z</time>
      </trkpt>
      <trkpt lat="43.321580" lon="1.789925">
        <ele>266.9</ele>
        <time>2015-08-04T14:46:35Z</time>
      </trkpt>
      <trkpt lat="43.321532" lon="1.790066">
        <ele>266.5</ele>
        <time>2015-08-04T14:46:40Z</time>
      </trkpt>
      <trkpt lat="43.321494" lon="1.790199">
        <ele>265.7</ele>
        <time>2015-08-04T14:46:44Z</time>
      </trkpt>
      <trkpt lat="43.321454" lon="1.790359">
        <ele>264.4</ele>
        <time>2015-08-04T14:46:48Z</time>
      </trkpt>
      <trkpt lat="43.321416" lon="1.790517">
        <ele>263.9</ele>
        <time>2015-08-04T14:46:52Z</time>
      </trkpt>
      <trkpt lat="43.321382" lon="1.790646">
        <ele>263.2</ele>
        <time>2015-08-04T14:46:55Z</time>
      </trkpt>
      <trkpt lat="43.321327" lon="1.790770">
        <ele>262.9</ele>
        <time>2015-08-04T14:49:32Z</time>
      </trkpt>
      <trkpt lat="43.321276" lon="1.790912">
        <ele>262.7</ele>
        <time>2015-08-04T14:49:36Z</time>
      </trkpt>
      <trkpt lat="43.321214" lon="1.791055">
        <ele>262.0</ele>
        <time>2015-08-04T14:49:39Z</time>
      </trkpt>
      <trkpt lat="43.321168" lon="1.791163">
        <ele>261.2</ele>
        <time>2015-08-04T14:49:41Z</time>
      </trkpt>
      <trkpt lat="43.321121" lon="1.791281">
        <ele>259.7</ele>
        <time>2015-08-04T14:49:43Z</time>
      </trkpt>
      <trkpt lat="43.321072" lon="1.791409">
        <ele>259.3</ele>
        <time>2015-08-04T14:49:45Z</time>
      </trkpt>
      <trkpt lat="43.321020" lon="1.791541">
        <ele>258.6</ele>
        <time>2015-08-04T14:49:47Z</time>
      </trkpt>
      <trkpt lat="43.320968" lon="1.791675">
        <ele>258.0</ele>
        <time>2015-08-04T14:49:49Z</time>
      </trkpt>
      <trkpt lat="43.320911" lon="1.791808">
        <ele>257.2</ele>
        <time>2015-08-04T14:49:51Z</time>
      </trkpt>
      <trkpt lat="43.320859" lon="1.791949">
        <ele>256.9</ele>
        <time>2015-08-04T14:49:53Z</time>
      </trkpt>
      <trkpt lat="43.320809" lon="1.792090">
        <ele>256.3</ele>
        <time>2015-08-04T14:49:55Z</time>
      </trkpt>
      <trkpt lat="43.320762" lon="1.792228">
        <ele>255.8</ele>
        <time>2015-08-04T14:49:57Z</time>
      </trkpt>
      <trkpt lat="43.320711" lon="1.792372">
        <ele>255.0</ele>
        <time>2015-08-04T14:49:59Z</time>
      </trkpt>
      <trkpt lat="43.320660" lon="1.792519">
        <ele>254.2</ele>
        <time>2015-08-04T14:50:01Z</time>
      </trkpt>
      <trkpt lat="43.320607" lon="1.792659">
        <ele>252.9</ele>
        <time>2015-08-04T14:50:03Z</time>
      </trkpt>
      <trkpt lat="43.320556" lon="1.792817">
        <ele>251.3</ele>
        <time>2015-08-04T14:50:05Z</time>
      </trkpt>
      <trkpt lat="43.320501" lon="1.792986">
        <ele>250.5</ele>
        <time>2015-08-04T14:50:07Z</time>
      </trkpt>
      <trkpt lat="43.320447" lon="1.793111">
        <ele>250.3</ele>
        <time>2015-08-04T14:50:09Z</time>
      </trkpt>
      <trkpt lat="43.320396" lon="1.793215">
        <ele>250.3</ele>
        <time>2015-08-04T14:50:13Z</time>
      </trkpt>
      <trkpt lat="43.320348" lon="1.793250">
        <ele>249.9</ele>
        <time>2015-08-04T14:50:36Z</time>
      </trkpt>
      <trkpt lat="43.320230" lon="1.793189">
        <ele>251.2</ele>
        <time>2015-08-04T14:50:54Z</time>
      </trkpt>
      <trkpt lat="43.320145" lon="1.793114">
        <ele>252.4</ele>
        <time>2015-08-04T14:51:00Z</time>
      </trkpt>
      <trkpt lat="43.320059" lon="1.793036">
        <ele>254.7</ele>
        <time>2015-08-04T14:51:07Z</time>
      </trkpt>
      <trkpt lat="43.319981" lon="1.792972">
        <ele>256.4</ele>
        <time>2015-08-04T14:51:17Z</time>
      </trkpt>
      <trkpt lat="43.319849" lon="1.792895">
        <ele>257.9</ele>
        <time>2015-08-04T14:51:26Z</time>
      </trkpt>
      <trkpt lat="43.319757" lon="1.792824">
        <ele>259.2</ele>
        <time>2015-08-04T14:51:32Z</time>
      </trkpt>
      <trkpt lat="43.319676" lon="1.792747">
        <ele>261.3</ele>
        <time>2015-08-04T14:51:37Z</time>
      </trkpt>
      <trkpt lat="43.319605" lon="1.792672">
        <ele>264.1</ele>
        <time>2015-08-04T14:51:42Z</time>
      </trkpt>
      <trkpt lat="43.319542" lon="1.792597">
        <ele>266.7</ele>
        <time>2015-08-04T14:51:51Z</time>
      </trkpt>
      <trkpt lat="43.319465" lon="1.792542">
        <ele>268.2</ele>
        <time>2015-08-04T14:52:02Z</time>
      </trkpt>
      <trkpt lat="43.319387" lon="1.792446">
        <ele>268.7</ele>
        <time>2015-08-04T14:52:15Z</time>
      </trkpt>
      <trkpt lat="43.319296" lon="1.792393">
        <ele>270.4</ele>
        <time>2015-08-04T14:52:25Z</time>
      </trkpt>
      <trkpt lat="43.319208" lon="1.792318">
        <ele>272.4</ele>
        <time>2015-08-04T14:52:34Z</time>
      </trkpt>
      <trkpt lat="43.319124" lon="1.792255">
        <ele>275.2</ele>
        <time>2015-08-04T14:52:44Z</time>
      </trkpt>
      <trkpt lat="43.319040" lon="1.792214">
        <ele>277.5</ele>
        <time>2015-08-04T14:52:55Z</time>
      </trkpt>
      <trkpt lat="43.318977" lon="1.792291">
        <ele>279.0</ele>
        <time>2015-08-04T14:53:19Z</time>
      </trkpt>
      <trkpt lat="43.318897" lon="1.792342">
        <ele>278.5</ele>
        <time>2015-08-04T14:54:33Z</time>
      </trkpt>
      <trkpt lat="43.318833" lon="1.792455">
        <ele>278.0</ele>
        <time>2015-08-04T14:54:38Z</time>
      </trkpt>
      <trkpt lat="43.318765" lon="1.792559">
        <ele>277.2</ele>
        <time>2015-08-04T14:54:42Z</time>
      </trkpt>
      <trkpt lat="43.318690" lon="1.792674">
        <ele>277.5</ele>
        <time>2015-08-04T14:54:46Z</time>
      </trkpt>
      <trkpt lat="43.318620" lon="1.792766">
        <ele>277.4</ele>
        <time>2015-08-04T14:54:49Z</time>
      </trkpt>
      <trkpt lat="43.318552" lon="1.792863">
        <ele>277.9</ele>
        <time>2015-08-04T14:54:52Z</time>
      </trkpt>
      <trkpt lat="43.318481" lon="1.792956">
        <ele>278.5</ele>
        <time>2015-08-04T14:54:55Z</time>
      </trkpt>
      <trkpt lat="43.318412" lon="1.793048">
        <ele>278.6</ele>
        <time>2015-08-04T14:54:58Z</time>
      </trkpt>
      <trkpt lat="43.318341" lon="1.793139">
        <ele>278.8</ele>
        <time>2015-08-04T14:55:01Z</time>
      </trkpt>
      <trkpt lat="43.318272" lon="1.793230">
        <ele>278.9</ele>
        <time>2015-08-04T14:55:04Z</time>
      </trkpt>
      <trkpt lat="43.318171" lon="1.793347">
        <ele>279.1</ele>
        <time>2015-08-04T14:55:08Z</time>
      </trkpt>
      <trkpt lat="43.318105" lon="1.793437">
        <ele>280.3</ele>
        <time>2015-08-04T14:55:11Z</time>
      </trkpt>
      <trkpt lat="43.318046" lon="1.793522">
        <ele>280.1</ele>
        <time>2015-08-04T14:55:14Z</time>
      </trkpt>
      <trkpt lat="43.317960" lon="1.793636">
        <ele>281.0</ele>
        <time>2015-08-04T14:55:18Z</time>
      </trkpt>
      <trkpt lat="43.317878" lon="1.793748">
        <ele>280.6</ele>
        <time>2015-08-04T14:55:22Z</time>
      </trkpt>
      <trkpt lat="43.317786" lon="1.793867">
        <ele>281.0</ele>
        <time>2015-08-04T14:55:26Z</time>
      </trkpt>
      <trkpt lat="43.317718" lon="1.793956">
        <ele>281.5</ele>
        <time>2015-08-04T14:55:29Z</time>
      </trkpt>
      <trkpt lat="43.317646" lon="1.794034">
        <ele>281.1</ele>
        <time>2015-08-04T14:55:32Z</time>
      </trkpt>
      <trkpt lat="43.317568" lon="1.794127">
        <ele>281.3</ele>
        <time>2015-08-04T14:55:35Z</time>
      </trkpt>
      <trkpt lat="43.317501" lon="1.794216">
        <ele>282.2</ele>
        <time>2015-08-04T14:55:38Z</time>
      </trkpt>
      <trkpt lat="43.317421" lon="1.794316">
        <ele>282.7</ele>
        <time>2015-08-04T14:55:42Z</time>
      </trkpt>
      <trkpt lat="43.317351" lon="1.794424">
        <ele>282.4</ele>
        <time>2015-08-04T14:55:46Z</time>
      </trkpt>
      <trkpt lat="43.317275" lon="1.794564">
        <ele>281.6</ele>
        <time>2015-08-04T14:55:50Z</time>
      </trkpt>
      <trkpt lat="43.317206" lon="1.794698">
        <ele>280.4</ele>
        <time>2015-08-04T14:55:53Z</time>
      </trkpt>
      <trkpt lat="43.317126" lon="1.794861">
        <ele>279.5</ele>
        <time>2015-08-04T14:55:56Z</time>
      </trkpt>
      <trkpt lat="43.317066" lon="1.794983">
        <ele>279.0</ele>
        <time>2015-08-04T14:55:58Z</time>
      </trkpt>
      <trkpt lat="43.316998" lon="1.795112">
        <ele>278.1</ele>
        <time>2015-08-04T14:56:00Z</time>
      </trkpt>
      <trkpt lat="43.316927" lon="1.795251">
        <ele>276.9</ele>
        <time>2015-08-04T14:56:02Z</time>
      </trkpt>
      <trkpt lat="43.316849" lon="1.795388">
        <ele>275.4</ele>
        <time>2015-08-04T14:56:04Z</time>
      </trkpt>
      <trkpt lat="43.316766" lon="1.795513">
        <ele>273.7</ele>
        <time>2015-08-04T14:56:06Z</time>
      </trkpt>
      <trkpt lat="43.316681" lon="1.795627">
        <ele>271.9</ele>
        <time>2015-08-04T14:56:08Z</time>
      </trkpt>
      <trkpt lat="43.316606" lon="1.795733">
        <ele>270.4</ele>
        <time>2015-08-04T14:56:10Z</time>
      </trkpt>
      <trkpt lat="43.316543" lon="1.795838">
        <ele>268.6</ele>
        <time>2015-08-04T14:56:12Z</time>
      </trkpt>
      <trkpt lat="43.316458" lon="1.795900">
        <ele>267.0</ele>
        <time>2015-08-04T14:56:14Z</time>
      </trkpt>
      <trkpt lat="43.316366" lon="1.795935">
        <ele>265.4</ele>
        <time>2015-08-04T14:56:16Z</time>
      </trkpt>
      <trkpt lat="43.316249" lon="1.796023">
        <ele>263.5</ele>
        <time>2015-08-04T14:56:19Z</time>
      </trkpt>
      <trkpt lat="43.316139" lon="1.796122">
        <ele>262.2</ele>
        <time>2015-08-04T14:56:22Z</time>
      </trkpt>
      <trkpt lat="43.316025" lon="1.796227">
        <ele>263.0</ele>
        <time>2015-08-04T14:56:25Z</time>
      </trkpt>
      <trkpt lat="43.315923" lon="1.796327">
        <ele>263.2</ele>
        <time>2015-08-04T14:56:28Z</time>
      </trkpt>
      <trkpt lat="43.315821" lon="1.796425">
        <ele>264.3</ele>
        <time>2015-08-04T14:56:31Z</time>
      </trkpt>
      <trkpt lat="43.315713" lon="1.796515">
        <ele>264.2</ele>
        <time>2015-08-04T14:56:34Z</time>
      </trkpt>
      <trkpt lat="43.315597" lon="1.796614">
        <ele>264.5</ele>
        <time>2015-08-04T14:56:37Z</time>
      </trkpt>
      <trkpt lat="43.315515" lon="1.796687">
        <ele>264.5</ele>
        <time>2015-08-04T14:56:39Z</time>
      </trkpt>
      <trkpt lat="43.315438" lon="1.796769">
        <ele>264.8</ele>
        <time>2015-08-04T14:56:41Z</time>
      </trkpt>
      <trkpt lat="43.315345" lon="1.796862">
        <ele>265.5</ele>
        <time>2015-08-04T14:56:43Z</time>
      </trkpt>
      <trkpt lat="43.315242" lon="1.796953">
        <ele>267.1</ele>
        <time>2015-08-04T14:56:45Z</time>
      </trkpt>
      <trkpt lat="43.315132" lon="1.797051">
        <ele>269.0</ele>
        <time>2015-08-04T14:56:47Z</time>
      </trkpt>
      <trkpt lat="43.315024" lon="1.797160">
        <ele>271.2</ele>
        <time>2015-08-04T14:56:49Z</time>
      </trkpt>
      <trkpt lat="43.314920" lon="1.797257">
        <ele>273.0</ele>
        <time>2015-08-04T14:56:51Z</time>
      </trkpt>
      <trkpt lat="43.314833" lon="1.797325">
        <ele>275.5</ele>
        <time>2015-08-04T14:56:53Z</time>
      </trkpt>
      <trkpt lat="43.314758" lon="1.797397">
        <ele>278.6</ele>
        <time>2015-08-04T14:56:56Z</time>
      </trkpt>
      <trkpt lat="43.314682" lon="1.797462">
        <ele>279.8</ele>
        <time>2015-08-04T14:57:00Z</time>
      </trkpt>
      <trkpt lat="43.314591" lon="1.797551">
        <ele>279.8</ele>
        <time>2015-08-04T14:57:04Z</time>
      </trkpt>
      <trkpt lat="43.314514" lon="1.797637">
        <ele>279.8</ele>
        <time>2015-08-04T14:57:08Z</time>
      </trkpt>
      <trkpt lat="43.314432" lon="1.797718">
        <ele>279.9</ele>
        <time>2015-08-04T14:57:12Z</time>
      </trkpt>
      <trkpt lat="43.314368" lon="1.797805">
        <ele>280.1</ele>
        <time>2015-08-04T14:57:16Z</time>
      </trkpt>
      <trkpt lat="43.314284" lon="1.797877">
        <ele>279.4</ele>
        <time>2015-08-04T14:57:20Z</time>
      </trkpt>
      <trkpt lat="43.314200" lon="1.797948">
        <ele>279.6</ele>
        <time>2015-08-04T14:57:24Z</time>
      </trkpt>
      <trkpt lat="43.314117" lon="1.798016">
        <ele>279.9</ele>
        <time>2015-08-04T14:57:28Z</time>
      </trkpt>
      <trkpt lat="43.314034" lon="1.798096">
        <ele>280.3</ele>
        <time>2015-08-04T14:57:32Z</time>
      </trkpt>
      <trkpt lat="43.313946" lon="1.798174">
        <ele>281.9</ele>
        <time>2015-08-04T14:57:36Z</time>
      </trkpt>
      <trkpt lat="43.313862" lon="1.798244">
        <ele>283.1</ele>
        <time>2015-08-04T14:57:40Z</time>
      </trkpt>
      <trkpt lat="43.313784" lon="1.798317">
        <ele>285.2</ele>
        <time>2015-08-04T14:57:44Z</time>
      </trkpt>
      <trkpt lat="43.313699" lon="1.798385">
        <ele>285.8</ele>
        <time>2015-08-04T14:57:48Z</time>
      </trkpt>
      <trkpt lat="43.313609" lon="1.798462">
        <ele>285.7</ele>
        <time>2015-08-04T14:57:52Z</time>
      </trkpt>
      <trkpt lat="43.313516" lon="1.798552">
        <ele>285.2</ele>
        <time>2015-08-04T14:57:56Z</time>
      </trkpt>
      <trkpt lat="43.313426" lon="1.798641">
        <ele>285.1</ele>
        <time>2015-08-04T14:58:00Z</time>
      </trkpt>
      <trkpt lat="43.313332" lon="1.798720">
        <ele>286.2</ele>
        <time>2015-08-04T14:58:04Z</time>
      </trkpt>
      <trkpt lat="43.313247" lon="1.798811">
        <ele>286.6</ele>
        <time>2015-08-04T14:58:08Z</time>
      </trkpt>
      <trkpt lat="43.313161" lon="1.798895">
        <ele>287.1</ele>
        <time>2015-08-04T14:58:12Z</time>
      </trkpt>
      <trkpt lat="43.313074" lon="1.798968">
        <ele>287.7</ele>
        <time>2015-08-04T14:58:16Z</time>
      </trkpt>
      <trkpt lat="43.312986" lon="1.799039">
        <ele>288.4</ele>
        <time>2015-08-04T14:58:20Z</time>
      </trkpt>
      <trkpt lat="43.312899" lon="1.799104">
        <ele>289.3</ele>
        <time>2015-08-04T14:58:24Z</time>
      </trkpt>
      <trkpt lat="43.312814" lon="1.799175">
        <ele>289.7</ele>
        <time>2015-08-04T14:58:28Z</time>
      </trkpt>
      <trkpt lat="43.312731" lon="1.799265">
        <ele>290.7</ele>
        <time>2015-08-04T14:58:32Z</time>
      </trkpt>
      <trkpt lat="43.312650" lon="1.799341">
        <ele>290.1</ele>
        <time>2015-08-04T14:58:37Z</time>
      </trkpt>
      <trkpt lat="43.312577" lon="1.799427">
        <ele>289.5</ele>
        <time>2015-08-04T14:58:41Z</time>
      </trkpt>
      <trkpt lat="43.312497" lon="1.799538">
        <ele>289.3</ele>
        <time>2015-08-04T14:58:50Z</time>
      </trkpt>
      <trkpt lat="43.312466" lon="1.799594">
        <ele>289.4</ele>
        <time>2015-08-04T15:00:14Z</time>
      </trkpt>
      <trkpt lat="43.312385" lon="1.799656">
        <ele>289.3</ele>
        <time>2015-08-04T15:01:16Z</time>
      </trkpt>
      <trkpt lat="43.312312" lon="1.799752">
        <ele>288.6</ele>
        <time>2015-08-04T15:01:20Z</time>
      </trkpt>
      <trkpt lat="43.312233" lon="1.799873">
        <ele>287.6</ele>
        <time>2015-08-04T15:01:24Z</time>
      </trkpt>
      <trkpt lat="43.312165" lon="1.799975">
        <ele>286.2</ele>
        <time>2015-08-04T15:01:27Z</time>
      </trkpt>
      <trkpt lat="43.312098" lon="1.800071">
        <ele>285.7</ele>
        <time>2015-08-04T15:01:30Z</time>
      </trkpt>
      <trkpt lat="43.312035" lon="1.800188">
        <ele>285.9</ele>
        <time>2015-08-04T15:01:34Z</time>
      </trkpt>
      <trkpt lat="43.311961" lon="1.800315">
        <ele>286.0</ele>
        <time>2015-08-04T15:01:38Z</time>
      </trkpt>
      <trkpt lat="43.311887" lon="1.800447">
        <ele>285.9</ele>
        <time>2015-08-04T15:01:42Z</time>
      </trkpt>
      <trkpt lat="43.311823" lon="1.800557">
        <ele>286.4</ele>
        <time>2015-08-04T15:01:46Z</time>
      </trkpt>
      <trkpt lat="43.311752" lon="1.800667">
        <ele>287.2</ele>
        <time>2015-08-04T15:01:50Z</time>
      </trkpt>
      <trkpt lat="43.311685" lon="1.800789">
        <ele>285.9</ele>
        <time>2015-08-04T15:01:54Z</time>
      </trkpt>
      <trkpt lat="43.311605" lon="1.800906">
        <ele>285.5</ele>
        <time>2015-08-04T15:01:58Z</time>
      </trkpt>
      <trkpt lat="43.311515" lon="1.801019">
        <ele>284.7</ele>
        <time>2015-08-04T15:02:02Z</time>
      </trkpt>
      <trkpt lat="43.311427" lon="1.801122">
        <ele>284.9</ele>
        <time>2015-08-04T15:02:06Z</time>
      </trkpt>
      <trkpt lat="43.311337" lon="1.801211">
        <ele>284.5</ele>
        <time>2015-08-04T15:02:10Z</time>
      </trkpt>
      <trkpt lat="43.311245" lon="1.801306">
        <ele>285.1</ele>
        <time>2015-08-04T15:02:14Z</time>
      </trkpt>
      <trkpt lat="43.311157" lon="1.801416">
        <ele>285.1</ele>
        <time>2015-08-04T15:02:17Z</time>
      </trkpt>
      <trkpt lat="43.311078" lon="1.801555">
        <ele>284.2</ele>
        <time>2015-08-04T15:02:20Z</time>
      </trkpt>
      <trkpt lat="43.311016" lon="1.801655">
        <ele>283.9</ele>
        <time>2015-08-04T15:02:22Z</time>
      </trkpt>
      <trkpt lat="43.310944" lon="1.801765">
        <ele>283.2</ele>
        <time>2015-08-04T15:02:24Z</time>
      </trkpt>
      <trkpt lat="43.310867" lon="1.801874">
        <ele>282.7</ele>
        <time>2015-08-04T15:02:26Z</time>
      </trkpt>
      <trkpt lat="43.310798" lon="1.801981">
        <ele>281.6</ele>
        <time>2015-08-04T15:02:28Z</time>
      </trkpt>
      <trkpt lat="43.310721" lon="1.802079">
        <ele>280.8</ele>
        <time>2015-08-04T15:02:30Z</time>
      </trkpt>
      <trkpt lat="43.310633" lon="1.802156">
        <ele>280.6</ele>
        <time>2015-08-04T15:02:32Z</time>
      </trkpt>
      <trkpt lat="43.310548" lon="1.802245">
        <ele>280.8</ele>
        <time>2015-08-04T15:02:34Z</time>
      </trkpt>
      <trkpt lat="43.310499" lon="1.802312">
        <ele>280.0</ele>
        <time>2015-08-04T15:02:58Z</time>
      </trkpt>
      <trkpt lat="43.310463" lon="1.802443">
        <ele>279.0</ele>
        <time>2015-08-04T15:03:02Z</time>
      </trkpt>
      <trkpt lat="43.310401" lon="1.802552">
        <ele>279.1</ele>
        <time>2015-08-04T15:03:05Z</time>
      </trkpt>
      <trkpt lat="43.310354" lon="1.802660">
        <ele>279.8</ele>
        <time>2015-08-04T15:03:08Z</time>
      </trkpt>
      <trkpt lat="43.310301" lon="1.802773">
        <ele>279.5</ele>
        <time>2015-08-04T15:03:11Z</time>
      </trkpt>
      <trkpt lat="43.310247" lon="1.802880">
        <ele>280.4</ele>
        <time>2015-08-04T15:03:14Z</time>
      </trkpt>
      <trkpt lat="43.310188" lon="1.803026">
        <ele>282.3</ele>
        <time>2015-08-04T15:03:18Z</time>
      </trkpt>
      <trkpt lat="43.310148" lon="1.803130">
        <ele>284.0</ele>
        <time>2015-08-04T15:03:21Z</time>
      </trkpt>
      <trkpt lat="43.310118" lon="1.803282">
        <ele>285.8</ele>
        <time>2015-08-04T15:03:25Z</time>
      </trkpt>
      <trkpt lat="43.310053" lon="1.803388">
        <ele>287.4</ele>
        <time>2015-08-04T15:03:30Z</time>
      </trkpt>
      <trkpt lat="43.309986" lon="1.803502">
        <ele>288.0</ele>
        <time>2015-08-04T15:03:35Z</time>
      </trkpt>
      <trkpt lat="43.309899" lon="1.803602">
        <ele>288.4</ele>
        <time>2015-08-04T15:03:40Z</time>
      </trkpt>
      <trkpt lat="43.309821" lon="1.803672">
        <ele>288.5</ele>
        <time>2015-08-04T15:03:44Z</time>
      </trkpt>
      <trkpt lat="43.309724" lon="1.803763">
        <ele>288.9</ele>
        <time>2015-08-04T15:03:49Z</time>
      </trkpt>
      <trkpt lat="43.309620" lon="1.803847">
        <ele>289.4</ele>
        <time>2015-08-04T15:03:54Z</time>
      </trkpt>
      <trkpt lat="43.309522" lon="1.803928">
        <ele>289.0</ele>
        <time>2015-08-04T15:03:58Z</time>
      </trkpt>
      <trkpt lat="43.309430" lon="1.804005">
        <ele>288.1</ele>
        <time>2015-08-04T15:04:02Z</time>
      </trkpt>
      <trkpt lat="43.309339" lon="1.804075">
        <ele>288.1</ele>
        <time>2015-08-04T15:04:06Z</time>
      </trkpt>
      <trkpt lat="43.309247" lon="1.804150">
        <ele>287.9</ele>
        <time>2015-08-04T15:04:10Z</time>
      </trkpt>
      <trkpt lat="43.309153" lon="1.804215">
        <ele>288.5</ele>
        <time>2015-08-04T15:04:14Z</time>
      </trkpt>
      <trkpt lat="43.309051" lon="1.804287">
        <ele>289.2</ele>
        <time>2015-08-04T15:04:18Z</time>
      </trkpt>
      <trkpt lat="43.308969" lon="1.804345">
        <ele>289.6</ele>
        <time>2015-08-04T15:04:21Z</time>
      </trkpt>
      <trkpt lat="43.308866" lon="1.804416">
        <ele>290.0</ele>
        <time>2015-08-04T15:04:25Z</time>
      </trkpt>
      <trkpt lat="43.308771" lon="1.804492">
        <ele>290.0</ele>
        <time>2015-08-04T15:04:29Z</time>
      </trkpt>
      <trkpt lat="43.308685" lon="1.804552">
        <ele>290.6</ele>
        <time>2015-08-04T15:04:33Z</time>
      </trkpt>
      <trkpt lat="43.308605" lon="1.804621">
        <ele>290.9</ele>
        <time>2015-08-04T15:04:37Z</time>
      </trkpt>
      <trkpt lat="43.308514" lon="1.804705">
        <ele>290.7</ele>
        <time>2015-08-04T15:04:43Z</time>
      </trkpt>
      <trkpt lat="43.308438" lon="1.804804">
        <ele>289.8</ele>
        <time>2015-08-04T15:04:48Z</time>
      </trkpt>
      <trkpt lat="43.308367" lon="1.804915">
        <ele>289.2</ele>
        <time>2015-08-04T15:04:52Z</time>
      </trkpt>
      <trkpt lat="43.308306" lon="1.805015">
        <ele>288.3</ele>
        <time>2015-08-04T15:04:55Z</time>
      </trkpt>
      <trkpt lat="43.308238" lon="1.805119">
        <ele>287.3</ele>
        <time>2015-08-04T15:04:58Z</time>
      </trkpt>
      <trkpt lat="43.308164" lon="1.805196">
        <ele>287.0</ele>
        <time>2015-08-04T15:05:02Z</time>
      </trkpt>
      <trkpt lat="43.308064" lon="1.805238">
        <ele>288.0</ele>
        <time>2015-08-04T15:05:06Z</time>
      </trkpt>
      <trkpt lat="43.307965" lon="1.805241">
        <ele>288.0</ele>
        <time>2015-08-04T15:05:11Z</time>
      </trkpt>
      <trkpt lat="43.307863" lon="1.805216">
        <ele>287.6</ele>
        <time>2015-08-04T15:05:16Z</time>
      </trkpt>
      <trkpt lat="43.307760" lon="1.805200">
        <ele>286.7</ele>
        <time>2015-08-04T15:05:19Z</time>
      </trkpt>
      <trkpt lat="43.307628" lon="1.805208">
        <ele>285.6</ele>
        <time>2015-08-04T15:05:22Z</time>
      </trkpt>
      <trkpt lat="43.307516" lon="1.805318">
        <ele>284.2</ele>
        <time>2015-08-04T15:05:25Z</time>
      </trkpt>
      <trkpt lat="43.307438" lon="1.805450">
        <ele>283.8</ele>
        <time>2015-08-04T15:05:28Z</time>
      </trkpt>
      <trkpt lat="43.307369" lon="1.805606">
        <ele>282.7</ele>
        <time>2015-08-04T15:05:31Z</time>
      </trkpt>
      <trkpt lat="43.307311" lon="1.805749">
        <ele>282.7</ele>
        <time>2015-08-04T15:05:34Z</time>
      </trkpt>
      <trkpt lat="43.307259" lon="1.805874">
        <ele>282.2</ele>
        <time>2015-08-04T15:05:37Z</time>
      </trkpt>
      <trkpt lat="43.307204" lon="1.805993">
        <ele>281.7</ele>
        <time>2015-08-04T15:05:40Z</time>
      </trkpt>
      <trkpt lat="43.307162" lon="1.806109">
        <ele>281.9</ele>
        <time>2015-08-04T15:05:43Z</time>
      </trkpt>
      <trkpt lat="43.307115" lon="1.806234">
        <ele>282.6</ele>
        <time>2015-08-04T15:05:46Z</time>
      </trkpt>
      <trkpt lat="43.307072" lon="1.806360">
        <ele>282.7</ele>
        <time>2015-08-04T15:05:49Z</time>
      </trkpt>
      <trkpt lat="43.307026" lon="1.806495">
        <ele>282.1</ele>
        <time>2015-08-04T15:05:53Z</time>
      </trkpt>
      <trkpt lat="43.306987" lon="1.806614">
        <ele>281.5</ele>
        <time>2015-08-04T15:05:57Z</time>
      </trkpt>
      <trkpt lat="43.306951" lon="1.806757">
        <ele>280.9</ele>
        <time>2015-08-04T15:06:01Z</time>
      </trkpt>
      <trkpt lat="43.306911" lon="1.806890">
        <ele>280.1</ele>
        <time>2015-08-04T15:06:05Z</time>
      </trkpt>
      <trkpt lat="43.306864" lon="1.807002">
        <ele>279.7</ele>
        <time>2015-08-04T15:06:08Z</time>
      </trkpt>
      <trkpt lat="43.306797" lon="1.807094">
        <ele>279.1</ele>
        <time>2015-08-04T15:06:12Z</time>
      </trkpt>
      <trkpt lat="43.306716" lon="1.807091">
        <ele>281.3</ele>
        <time>2015-08-04T15:06:22Z</time>
      </trkpt>
      <trkpt lat="43.306635" lon="1.807039">
        <ele>283.2</ele>
        <time>2015-08-04T15:06:33Z</time>
      </trkpt>
      <trkpt lat="43.306539" lon="1.806974">
        <ele>285.8</ele>
        <time>2015-08-04T15:06:46Z</time>
      </trkpt>
      <trkpt lat="43.306427" lon="1.806914">
        <ele>289.8</ele>
        <time>2015-08-04T15:07:01Z</time>
      </trkpt>
      <trkpt lat="43.306312" lon="1.806818">
        <ele>293.4</ele>
        <time>2015-08-04T15:07:15Z</time>
      </trkpt>
      <trkpt lat="43.306248" lon="1.806759">
        <ele>295.8</ele>
        <time>2015-08-04T15:07:32Z</time>
      </trkpt>
      <trkpt lat="43.306242" lon="1.806672">
        <ele>303.9</ele>
        <time>2015-08-04T15:09:37Z</time>
      </trkpt>
      <trkpt lat="43.306254" lon="1.806579">
        <ele>304.8</ele>
        <time>2015-08-04T15:10:32Z</time>
      </trkpt>
      <trkpt lat="43.306285" lon="1.806472">
        <ele>305.4</ele>
        <time>2015-08-04T15:10:36Z</time>
      </trkpt>
      <trkpt lat="43.306316" lon="1.806358">
        <ele>306.7</ele>
        <time>2015-08-04T15:10:40Z</time>
      </trkpt>
      <trkpt lat="43.306344" lon="1.806222">
        <ele>307.2</ele>
        <time>2015-08-04T15:10:44Z</time>
      </trkpt>
      <trkpt lat="43.306369" lon="1.806084">
        <ele>306.6</ele>
        <time>2015-08-04T15:10:48Z</time>
      </trkpt>
      <trkpt lat="43.306402" lon="1.805960">
        <ele>307.9</ele>
        <time>2015-08-04T15:10:52Z</time>
      </trkpt>
      <trkpt lat="43.306446" lon="1.805844">
        <ele>310.4</ele>
        <time>2015-08-04T15:10:56Z</time>
      </trkpt>
      <trkpt lat="43.306491" lon="1.805725">
        <ele>314.0</ele>
        <time>2015-08-04T15:11:00Z</time>
      </trkpt>
      <trkpt lat="43.306520" lon="1.805605">
        <ele>315.7</ele>
        <time>2015-08-04T15:11:04Z</time>
      </trkpt>
      <trkpt lat="43.306529" lon="1.805483">
        <ele>316.5</ele>
        <time>2015-08-04T15:11:08Z</time>
      </trkpt>
      <trkpt lat="43.306539" lon="1.805342">
        <ele>316.4</ele>
        <time>2015-08-04T15:11:13Z</time>
      </trkpt>
      <trkpt lat="43.306545" lon="1.805205">
        <ele>316.7</ele>
        <time>2015-08-04T15:11:17Z</time>
      </trkpt>
      <trkpt lat="43.306547" lon="1.805044">
        <ele>318.0</ele>
        <time>2015-08-04T15:11:21Z</time>
      </trkpt>
      <trkpt lat="43.306542" lon="1.804882">
        <ele>317.7</ele>
        <time>2015-08-04T15:11:25Z</time>
      </trkpt>
      <trkpt lat="43.306535" lon="1.804717">
        <ele>316.0</ele>
        <time>2015-08-04T15:11:29Z</time>
      </trkpt>
      <trkpt lat="43.306535" lon="1.804541">
        <ele>315.4</ele>
        <time>2015-08-04T15:11:33Z</time>
      </trkpt>
      <trkpt lat="43.306540" lon="1.804403">
        <ele>314.7</ele>
        <time>2015-08-04T15:11:36Z</time>
      </trkpt>
      <trkpt lat="43.306554" lon="1.804243">
        <ele>313.8</ele>
        <time>2015-08-04T15:11:40Z</time>
      </trkpt>
      <trkpt lat="43.306557" lon="1.804118">
        <ele>311.2</ele>
        <time>2015-08-04T15:11:43Z</time>
      </trkpt>
      <trkpt lat="43.306566" lon="1.803964">
        <ele>308.2</ele>
        <time>2015-08-04T15:11:47Z</time>
      </trkpt>
      <trkpt lat="43.306579" lon="1.803802">
        <ele>306.1</ele>
        <time>2015-08-04T15:11:51Z</time>
      </trkpt>
      <trkpt lat="43.306592" lon="1.803635">
        <ele>303.6</ele>
        <time>2015-08-04T15:11:55Z</time>
      </trkpt>
      <trkpt lat="43.306599" lon="1.803507">
        <ele>301.5</ele>
        <time>2015-08-04T15:11:58Z</time>
      </trkpt>
      <trkpt lat="43.306619" lon="1.803372">
        <ele>299.9</ele>
        <time>2015-08-04T15:12:01Z</time>
      </trkpt>
      <trkpt lat="43.306632" lon="1.803193">
        <ele>298.4</ele>
        <time>2015-08-04T15:12:04Z</time>
      </trkpt>
      <trkpt lat="43.306652" lon="1.803002">
        <ele>297.5</ele>
        <time>2015-08-04T15:12:07Z</time>
      </trkpt>
      <trkpt lat="43.306666" lon="1.802824">
        <ele>296.1</ele>
        <time>2015-08-04T15:12:10Z</time>
      </trkpt>
      <trkpt lat="43.306674" lon="1.802650">
        <ele>295.9</ele>
        <time>2015-08-04T15:12:13Z</time>
      </trkpt>
      <trkpt lat="43.306678" lon="1.802482">
        <ele>296.1</ele>
        <time>2015-08-04T15:12:16Z</time>
      </trkpt>
      <trkpt lat="43.306678" lon="1.802354">
        <ele>296.5</ele>
        <time>2015-08-04T15:12:18Z</time>
      </trkpt>
      <trkpt lat="43.306676" lon="1.802217">
        <ele>297.4</ele>
        <time>2015-08-04T15:12:20Z</time>
      </trkpt>
      <trkpt lat="43.306672" lon="1.802080">
        <ele>298.6</ele>
        <time>2015-08-04T15:12:22Z</time>
      </trkpt>
      <trkpt lat="43.306672" lon="1.801899">
        <ele>300.6</ele>
        <time>2015-08-04T15:12:25Z</time>
      </trkpt>
      <trkpt lat="43.306678" lon="1.801720">
        <ele>301.9</ele>
        <time>2015-08-04T15:12:28Z</time>
      </trkpt>
      <trkpt lat="43.306691" lon="1.801542">
        <ele>302.1</ele>
        <time>2015-08-04T15:12:31Z</time>
      </trkpt>
      <trkpt lat="43.306692" lon="1.801384">
        <ele>303.9</ele>
        <time>2015-08-04T15:12:34Z</time>
      </trkpt>
      <trkpt lat="43.306685" lon="1.801249">
        <ele>305.8</ele>
        <time>2015-08-04T15:12:37Z</time>
      </trkpt>
      <trkpt lat="43.306697" lon="1.801093">
        <ele>306.8</ele>
        <time>2015-08-04T15:12:41Z</time>
      </trkpt>
      <trkpt lat="43.306701" lon="1.800939">
        <ele>306.9</ele>
        <time>2015-08-04T15:12:45Z</time>
      </trkpt>
      <trkpt lat="43.306709" lon="1.800791">
        <ele>307.0</ele>
        <time>2015-08-04T15:12:49Z</time>
      </trkpt>
      <trkpt lat="43.306715" lon="1.800625">
        <ele>308.2</ele>
        <time>2015-08-04T15:12:53Z</time>
      </trkpt>
      <trkpt lat="43.306718" lon="1.800499">
        <ele>307.8</ele>
        <time>2015-08-04T15:12:56Z</time>
      </trkpt>
      <trkpt lat="43.306719" lon="1.800337">
        <ele>308.1</ele>
        <time>2015-08-04T15:13:00Z</time>
      </trkpt>
      <trkpt lat="43.306720" lon="1.800190">
        <ele>307.3</ele>
        <time>2015-08-04T15:13:03Z</time>
      </trkpt>
      <trkpt lat="43.306722" lon="1.800046">
        <ele>306.4</ele>
        <time>2015-08-04T15:13:06Z</time>
      </trkpt>
      <trkpt lat="43.306769" lon="1.799876">
        <ele>306.1</ele>
        <time>2015-08-04T15:13:10Z</time>
      </trkpt>
      <trkpt lat="43.306782" lon="1.799732">
        <ele>303.6</ele>
        <time>2015-08-04T15:13:13Z</time>
      </trkpt>
      <trkpt lat="43.306790" lon="1.799608">
        <ele>303.6</ele>
        <time>2015-08-04T15:13:16Z</time>
      </trkpt>
      <trkpt lat="43.306823" lon="1.799471">
        <ele>303.5</ele>
        <time>2015-08-04T15:13:20Z</time>
      </trkpt>
      <trkpt lat="43.306855" lon="1.799337">
        <ele>301.9</ele>
        <time>2015-08-04T15:13:23Z</time>
      </trkpt>
      <trkpt lat="43.306889" lon="1.799206">
        <ele>301.5</ele>
        <time>2015-08-04T15:13:26Z</time>
      </trkpt>
      <trkpt lat="43.306941" lon="1.799067">
        <ele>302.5</ele>
        <time>2015-08-04T15:13:30Z</time>
      </trkpt>
      <trkpt lat="43.306990" lon="1.798936">
        <ele>303.4</ele>
        <time>2015-08-04T15:13:33Z</time>
      </trkpt>
      <trkpt lat="43.307036" lon="1.798811">
        <ele>303.7</ele>
        <time>2015-08-04T15:13:36Z</time>
      </trkpt>
      <trkpt lat="43.307085" lon="1.798674">
        <ele>303.7</ele>
        <time>2015-08-04T15:13:39Z</time>
      </trkpt>
      <trkpt lat="43.307135" lon="1.798549">
        <ele>302.2</ele>
        <time>2015-08-04T15:13:42Z</time>
      </trkpt>
      <trkpt lat="43.307182" lon="1.798435">
        <ele>302.6</ele>
        <time>2015-08-04T15:13:45Z</time>
      </trkpt>
      <trkpt lat="43.307228" lon="1.798303">
        <ele>303.5</ele>
        <time>2015-08-04T15:13:49Z</time>
      </trkpt>
      <trkpt lat="43.307267" lon="1.798171">
        <ele>303.8</ele>
        <time>2015-08-04T15:13:54Z</time>
      </trkpt>
      <trkpt lat="43.307312" lon="1.798044">
        <ele>302.9</ele>
        <time>2015-08-04T15:13:59Z</time>
      </trkpt>
      <trkpt lat="43.307354" lon="1.797927">
        <ele>303.0</ele>
        <time>2015-08-04T15:14:03Z</time>
      </trkpt>
      <trkpt lat="43.307404" lon="1.797826">
        <ele>302.7</ele>
        <time>2015-08-04T15:14:09Z</time>
      </trkpt>
      <trkpt lat="43.307453" lon="1.797714">
        <ele>302.6</ele>
        <time>2015-08-04T15:14:24Z</time>
      </trkpt>
      <trkpt lat="43.307510" lon="1.797608">
        <ele>302.2</ele>
        <time>2015-08-04T15:14:33Z</time>
      </trkpt>
      <trkpt lat="43.307567" lon="1.797495">
        <ele>302.0</ele>
        <time>2015-08-04T15:14:38Z</time>
      </trkpt>
      <trkpt lat="43.307525" lon="1.797456">
        <ele>306.0</ele>
        <time>2015-08-04T15:17:48Z</time>
      </trkpt>
      <trkpt lat="43.307587" lon="1.797380">
        <ele>302.8</ele>
        <time>2015-08-04T15:18:11Z</time>
      </trkpt>
      <trkpt lat="43.307645" lon="1.797277">
        <ele>302.7</ele>
        <time>2015-08-04T15:18:15Z</time>
      </trkpt>
      <trkpt lat="43.307691" lon="1.797167">
        <ele>301.9</ele>
        <time>2015-08-04T15:18:18Z</time>
      </trkpt>
      <trkpt lat="43.307737" lon="1.797048">
        <ele>301.7</ele>
        <time>2015-08-04T15:18:21Z</time>
      </trkpt>
      <trkpt lat="43.307778" lon="1.796924">
        <ele>300.8</ele>
        <time>2015-08-04T15:18:24Z</time>
      </trkpt>
      <trkpt lat="43.307811" lon="1.796806">
        <ele>300.6</ele>
        <time>2015-08-04T15:18:27Z</time>
      </trkpt>
      <trkpt lat="43.307853" lon="1.796651">
        <ele>300.4</ele>
        <time>2015-08-04T15:18:30Z</time>
      </trkpt>
      <trkpt lat="43.307897" lon="1.796503">
        <ele>300.6</ele>
        <time>2015-08-04T15:18:33Z</time>
      </trkpt>
      <trkpt lat="43.307936" lon="1.796361">
        <ele>300.0</ele>
        <time>2015-08-04T15:18:36Z</time>
      </trkpt>
      <trkpt lat="43.307973" lon="1.796216">
        <ele>299.5</ele>
        <time>2015-08-04T15:18:39Z</time>
      </trkpt>
      <trkpt lat="43.308016" lon="1.796052">
        <ele>299.7</ele>
        <time>2015-08-04T15:18:42Z</time>
      </trkpt>
      <trkpt lat="43.308054" lon="1.795906">
        <ele>299.1</ele>
        <time>2015-08-04T15:18:45Z</time>
      </trkpt>
      <trkpt lat="43.308091" lon="1.795776">
        <ele>299.3</ele>
        <time>2015-08-04T15:18:48Z</time>
      </trkpt>
      <trkpt lat="43.308131" lon="1.795628">
        <ele>299.5</ele>
        <time>2015-08-04T15:18:51Z</time>
      </trkpt>
      <trkpt lat="43.308169" lon="1.795484">
        <ele>299.2</ele>
        <time>2015-08-04T15:18:54Z</time>
      </trkpt>
      <trkpt lat="43.308207" lon="1.795353">
        <ele>298.9</ele>
        <time>2015-08-04T15:18:57Z</time>
      </trkpt>
      <trkpt lat="43.308249" lon="1.795225">
        <ele>298.5</ele>
        <time>2015-08-04T15:19:00Z</time>
      </trkpt>
      <trkpt lat="43.308291" lon="1.795099">
        <ele>298.4</ele>
        <time>2015-08-04T15:19:03Z</time>
      </trkpt>
      <trkpt lat="43.308330" lon="1.794972">
        <ele>298.0</ele>
        <time>2015-08-04T15:19:06Z</time>
      </trkpt>
      <trkpt lat="43.308367" lon="1.794849">
        <ele>297.0</ele>
        <time>2015-08-04T15:19:09Z</time>
      </trkpt>
      <trkpt lat="43.308402" lon="1.794725">
        <ele>296.8</ele>
        <time>2015-08-04T15:19:12Z</time>
      </trkpt>
      <trkpt lat="43.308435" lon="1.794595">
        <ele>296.7</ele>
        <time>2015-08-04T15:19:15Z</time>
      </trkpt>
      <trkpt lat="43.308461" lon="1.794477">
        <ele>296.1</ele>
        <time>2015-08-04T15:19:18Z</time>
      </trkpt>
      <trkpt lat="43.308478" lon="1.794336">
        <ele>295.9</ele>
        <time>2015-08-04T15:19:21Z</time>
      </trkpt>
      <trkpt lat="43.308497" lon="1.794193">
        <ele>295.1</ele>
        <time>2015-08-04T15:19:24Z</time>
      </trkpt>
      <trkpt lat="43.308521" lon="1.794060">
        <ele>294.8</ele>
        <time>2015-08-04T15:19:27Z</time>
      </trkpt>
      <trkpt lat="43.308565" lon="1.793925">
        <ele>294.3</ele>
        <time>2015-08-04T15:19:31Z</time>
      </trkpt>
      <trkpt lat="43.308591" lon="1.793841">
        <ele>293.1</ele>
        <time>2015-08-04T15:19:52Z</time>
      </trkpt>
      <trkpt lat="43.308694" lon="1.793838">
        <ele>293.0</ele>
        <time>2015-08-04T15:19:57Z</time>
      </trkpt>
      <trkpt lat="43.308813" lon="1.793864">
        <ele>292.2</ele>
        <time>2015-08-04T15:20:00Z</time>
      </trkpt>
      <trkpt lat="43.308933" lon="1.793861">
        <ele>291.4</ele>
        <time>2015-08-04T15:20:03Z</time>
      </trkpt>
      <trkpt lat="43.309028" lon="1.793811">
        <ele>290.9</ele>
        <time>2015-08-04T15:20:06Z</time>
      </trkpt>
      <trkpt lat="43.309089" lon="1.793723">
        <ele>289.8</ele>
        <time>2015-08-04T15:20:08Z</time>
      </trkpt>
      <trkpt lat="43.309161" lon="1.793611">
        <ele>289.5</ele>
        <time>2015-08-04T15:20:10Z</time>
      </trkpt>
      <trkpt lat="43.309219" lon="1.793495">
        <ele>288.7</ele>
        <time>2015-08-04T15:20:12Z</time>
      </trkpt>
      <trkpt lat="43.309288" lon="1.793358">
        <ele>287.9</ele>
        <time>2015-08-04T15:20:15Z</time>
      </trkpt>
      <trkpt lat="43.309353" lon="1.793250">
        <ele>287.4</ele>
        <time>2015-08-04T15:20:18Z</time>
      </trkpt>
      <trkpt lat="43.309420" lon="1.793128">
        <ele>287.1</ele>
        <time>2015-08-04T15:20:21Z</time>
      </trkpt>
      <trkpt lat="43.309483" lon="1.792993">
        <ele>286.6</ele>
        <time>2015-08-04T15:20:24Z</time>
      </trkpt>
      <trkpt lat="43.309542" lon="1.792862">
        <ele>285.5</ele>
        <time>2015-08-04T15:20:27Z</time>
      </trkpt>
      <trkpt lat="43.309588" lon="1.792743">
        <ele>284.9</ele>
        <time>2015-08-04T15:20:30Z</time>
      </trkpt>
      <trkpt lat="43.309651" lon="1.792600">
        <ele>283.3</ele>
        <time>2015-08-04T15:20:34Z</time>
      </trkpt>
      <trkpt lat="43.309736" lon="1.792514">
        <ele>283.6</ele>
        <time>2015-08-04T15:20:37Z</time>
      </trkpt>
      <trkpt lat="43.309828" lon="1.792420">
        <ele>284.0</ele>
        <time>2015-08-04T15:20:40Z</time>
      </trkpt>
      <trkpt lat="43.309915" lon="1.792322">
        <ele>284.1</ele>
        <time>2015-08-04T15:20:43Z</time>
      </trkpt>
      <trkpt lat="43.309992" lon="1.792213">
        <ele>284.4</ele>
        <time>2015-08-04T15:20:46Z</time>
      </trkpt>
      <trkpt lat="43.310064" lon="1.792102">
        <ele>283.8</ele>
        <time>2015-08-04T15:20:49Z</time>
      </trkpt>
      <trkpt lat="43.310127" lon="1.792003">
        <ele>282.9</ele>
        <time>2015-08-04T15:20:52Z</time>
      </trkpt>
      <trkpt lat="43.310210" lon="1.791888">
        <ele>282.2</ele>
        <time>2015-08-04T15:20:56Z</time>
      </trkpt>
      <trkpt lat="43.310286" lon="1.791794">
        <ele>282.6</ele>
        <time>2015-08-04T15:20:59Z</time>
      </trkpt>
      <trkpt lat="43.310353" lon="1.791701">
        <ele>282.2</ele>
        <time>2015-08-04T15:21:02Z</time>
      </trkpt>
      <trkpt lat="43.310428" lon="1.791568">
        <ele>281.8</ele>
        <time>2015-08-04T15:21:06Z</time>
      </trkpt>
      <trkpt lat="43.310508" lon="1.791447">
        <ele>280.5</ele>
        <time>2015-08-04T15:21:10Z</time>
      </trkpt>
      <trkpt lat="43.310589" lon="1.791322">
        <ele>279.1</ele>
        <time>2015-08-04T15:21:14Z</time>
      </trkpt>
      <trkpt lat="43.310653" lon="1.791216">
        <ele>278.0</ele>
        <time>2015-08-04T15:21:17Z</time>
      </trkpt>
      <trkpt lat="43.310734" lon="1.791096">
        <ele>280.5</ele>
        <time>2015-08-04T15:21:21Z</time>
      </trkpt>
      <trkpt lat="43.310817" lon="1.790978">
        <ele>282.5</ele>
        <time>2015-08-04T15:21:25Z</time>
      </trkpt>
      <trkpt lat="43.310877" lon="1.790882">
        <ele>283.2</ele>
        <time>2015-08-04T15:21:28Z</time>
      </trkpt>
      <trkpt lat="43.310961" lon="1.790762">
        <ele>284.8</ele>
        <time>2015-08-04T15:21:32Z</time>
      </trkpt>
      <trkpt lat="43.311045" lon="1.790643">
        <ele>286.9</ele>
        <time>2015-08-04T15:21:36Z</time>
      </trkpt>
      <trkpt lat="43.311109" lon="1.790504">
        <ele>288.9</ele>
        <time>2015-08-04T15:21:40Z</time>
      </trkpt>
      <trkpt lat="43.311167" lon="1.790366">
        <ele>291.5</ele>
        <time>2015-08-04T15:21:44Z</time>
      </trkpt>
      <trkpt lat="43.311222" lon="1.790233">
        <ele>291.6</ele>
        <time>2015-08-04T15:21:48Z</time>
      </trkpt>
      <trkpt lat="43.311278" lon="1.790119">
        <ele>294.2</ele>
        <time>2015-08-04T15:21:52Z</time>
      </trkpt>
      <trkpt lat="43.311326" lon="1.789999">
        <ele>298.4</ele>
        <time>2015-08-04T15:21:56Z</time>
      </trkpt>
      <trkpt lat="43.311382" lon="1.789900">
        <ele>302.4</ele>
        <time>2015-08-04T15:22:00Z</time>
      </trkpt>
      <trkpt lat="43.311423" lon="1.789805">
        <ele>306.2</ele>
        <time>2015-08-04T15:22:04Z</time>
      </trkpt>
      <trkpt lat="43.311493" lon="1.789668">
        <ele>312.6</ele>
        <time>2015-08-04T15:22:08Z</time>
      </trkpt>
      <trkpt lat="43.311550" lon="1.789566">
        <ele>316.3</ele>
        <time>2015-08-04T15:22:11Z</time>
      </trkpt>
      <trkpt lat="43.311601" lon="1.789449">
        <ele>315.6</ele>
        <time>2015-08-04T15:22:15Z</time>
      </trkpt>
      <trkpt lat="43.311648" lon="1.789331">
        <ele>312.0</ele>
        <time>2015-08-04T15:22:19Z</time>
      </trkpt>
      <trkpt lat="43.311710" lon="1.789199">
        <ele>307.3</ele>
        <time>2015-08-04T15:22:23Z</time>
      </trkpt>
      <trkpt lat="43.311772" lon="1.789096">
        <ele>303.8</ele>
        <time>2015-08-04T15:22:26Z</time>
      </trkpt>
      <trkpt lat="43.311845" lon="1.788963">
        <ele>300.6</ele>
        <time>2015-08-04T15:22:29Z</time>
      </trkpt>
      <trkpt lat="43.311900" lon="1.788864">
        <ele>298.4</ele>
        <time>2015-08-04T15:22:31Z</time>
      </trkpt>
      <trkpt lat="43.311957" lon="1.788755">
        <ele>296.2</ele>
        <time>2015-08-04T15:22:33Z</time>
      </trkpt>
      <trkpt lat="43.312016" lon="1.788650">
        <ele>294.1</ele>
        <time>2015-08-04T15:22:35Z</time>
      </trkpt>
      <trkpt lat="43.312079" lon="1.788544">
        <ele>292.4</ele>
        <time>2015-08-04T15:22:37Z</time>
      </trkpt>
      <trkpt lat="43.312140" lon="1.788433">
        <ele>290.5</ele>
        <time>2015-08-04T15:22:39Z</time>
      </trkpt>
      <trkpt lat="43.312203" lon="1.788327">
        <ele>288.5</ele>
        <time>2015-08-04T15:22:41Z</time>
      </trkpt>
      <trkpt lat="43.312261" lon="1.788216">
        <ele>286.2</ele>
        <time>2015-08-04T15:22:43Z</time>
      </trkpt>
      <trkpt lat="43.312315" lon="1.788107">
        <ele>286.3</ele>
        <time>2015-08-04T15:22:45Z</time>
      </trkpt>
      <trkpt lat="43.312369" lon="1.788001">
        <ele>283.6</ele>
        <time>2015-08-04T15:22:47Z</time>
      </trkpt>
      <trkpt lat="43.312423" lon="1.787894">
        <ele>282.9</ele>
        <time>2015-08-04T15:22:49Z</time>
      </trkpt>
      <trkpt lat="43.312473" lon="1.787789">
        <ele>282.8</ele>
        <time>2015-08-04T15:22:51Z</time>
      </trkpt>
      <trkpt lat="43.312524" lon="1.787675">
        <ele>280.6</ele>
        <time>2015-08-04T15:22:53Z</time>
      </trkpt>
      <trkpt lat="43.312570" lon="1.787557">
        <ele>280.0</ele>
        <time>2015-08-04T15:22:55Z</time>
      </trkpt>
      <trkpt lat="43.312617" lon="1.787419">
        <ele>279.0</ele>
        <time>2015-08-04T15:22:57Z</time>
      </trkpt>
      <trkpt lat="43.312665" lon="1.787267">
        <ele>277.2</ele>
        <time>2015-08-04T15:22:59Z</time>
      </trkpt>
      <trkpt lat="43.312729" lon="1.787114">
        <ele>276.7</ele>
        <time>2015-08-04T15:23:01Z</time>
      </trkpt>
      <trkpt lat="43.312810" lon="1.786963">
        <ele>273.9</ele>
        <time>2015-08-04T15:23:03Z</time>
      </trkpt>
      <trkpt lat="43.312905" lon="1.786839">
        <ele>273.5</ele>
        <time>2015-08-04T15:23:05Z</time>
      </trkpt>
      <trkpt lat="43.313003" lon="1.786734">
        <ele>273.5</ele>
        <time>2015-08-04T15:23:07Z</time>
      </trkpt>
      <trkpt lat="43.313077" lon="1.786654">
        <ele>274.6</ele>
        <time>2015-08-04T15:23:09Z</time>
      </trkpt>
      <trkpt lat="43.313144" lon="1.786571">
        <ele>276.4</ele>
        <time>2015-08-04T15:23:12Z</time>
      </trkpt>
      <trkpt lat="43.313220" lon="1.786481">
        <ele>277.1</ele>
        <time>2015-08-04T15:23:18Z</time>
      </trkpt>
      <trkpt lat="43.313286" lon="1.786390">
        <ele>277.6</ele>
        <time>2015-08-04T15:23:36Z</time>
      </trkpt>
      <trkpt lat="43.313368" lon="1.786307">
        <ele>277.5</ele>
        <time>2015-08-04T15:23:39Z</time>
      </trkpt>
      <trkpt lat="43.313463" lon="1.786220">
        <ele>277.3</ele>
        <time>2015-08-04T15:23:42Z</time>
      </trkpt>
      <trkpt lat="43.313547" lon="1.786140">
        <ele>277.3</ele>
        <time>2015-08-04T15:23:45Z</time>
      </trkpt>
      <trkpt lat="43.313632" lon="1.786076">
        <ele>278.1</ele>
        <time>2015-08-04T15:23:48Z</time>
      </trkpt>
      <trkpt lat="43.313751" lon="1.786054">
        <ele>279.0</ele>
        <time>2015-08-04T15:23:52Z</time>
      </trkpt>
      <trkpt lat="43.313870" lon="1.786057">
        <ele>279.5</ele>
        <time>2015-08-04T15:23:56Z</time>
      </trkpt>
      <trkpt lat="43.313955" lon="1.785993">
        <ele>280.1</ele>
        <time>2015-08-04T15:23:59Z</time>
      </trkpt>
      <trkpt lat="43.314027" lon="1.785899">
        <ele>280.3</ele>
        <time>2015-08-04T15:24:02Z</time>
      </trkpt>
      <trkpt lat="43.314099" lon="1.785771">
        <ele>280.9</ele>
        <time>2015-08-04T15:24:06Z</time>
      </trkpt>
      <trkpt lat="43.314159" lon="1.785643">
        <ele>281.3</ele>
        <time>2015-08-04T15:24:09Z</time>
      </trkpt>
      <trkpt lat="43.314220" lon="1.785498">
        <ele>280.7</ele>
        <time>2015-08-04T15:24:12Z</time>
      </trkpt>
      <trkpt lat="43.314287" lon="1.785356">
        <ele>280.0</ele>
        <time>2015-08-04T15:24:15Z</time>
      </trkpt>
      <trkpt lat="43.314361" lon="1.785209">
        <ele>279.3</ele>
        <time>2015-08-04T15:24:18Z</time>
      </trkpt>
      <trkpt lat="43.314427" lon="1.785065">
        <ele>278.1</ele>
        <time>2015-08-04T15:24:21Z</time>
      </trkpt>
      <trkpt lat="43.314488" lon="1.784925">
        <ele>277.2</ele>
        <time>2015-08-04T15:24:24Z</time>
      </trkpt>
      <trkpt lat="43.314550" lon="1.784796">
        <ele>276.6</ele>
        <time>2015-08-04T15:24:27Z</time>
      </trkpt>
      <trkpt lat="43.314618" lon="1.784671">
        <ele>275.9</ele>
        <time>2015-08-04T15:24:30Z</time>
      </trkpt>
      <trkpt lat="43.314686" lon="1.784551">
        <ele>275.5</ele>
        <time>2015-08-04T15:24:33Z</time>
      </trkpt>
      <trkpt lat="43.314761" lon="1.784431">
        <ele>275.6</ele>
        <time>2015-08-04T15:24:36Z</time>
      </trkpt>
      <trkpt lat="43.314839" lon="1.784283">
        <ele>275.3</ele>
        <time>2015-08-04T15:24:39Z</time>
      </trkpt>
      <trkpt lat="43.314917" lon="1.784136">
        <ele>274.5</ele>
        <time>2015-08-04T15:24:42Z</time>
      </trkpt>
      <trkpt lat="43.314976" lon="1.784024">
        <ele>274.1</ele>
        <time>2015-08-04T15:24:44Z</time>
      </trkpt>
      <trkpt lat="43.315040" lon="1.783918">
        <ele>274.1</ele>
        <time>2015-08-04T15:24:46Z</time>
      </trkpt>
      <trkpt lat="43.315134" lon="1.783785">
        <ele>273.7</ele>
        <time>2015-08-04T15:24:49Z</time>
      </trkpt>
      <trkpt lat="43.315218" lon="1.783681">
        <ele>273.5</ele>
        <time>2015-08-04T15:24:52Z</time>
      </trkpt>
      <trkpt lat="43.315308" lon="1.783584">
        <ele>272.5</ele>
        <time>2015-08-04T15:24:55Z</time>
      </trkpt>
      <trkpt lat="43.315416" lon="1.783491">
        <ele>271.5</ele>
        <time>2015-08-04T15:24:58Z</time>
      </trkpt>
      <trkpt lat="43.315517" lon="1.783379">
        <ele>269.6</ele>
        <time>2015-08-04T15:25:01Z</time>
      </trkpt>
      <trkpt lat="43.315597" lon="1.783294">
        <ele>268.8</ele>
        <time>2015-08-04T15:25:03Z</time>
      </trkpt>
      <trkpt lat="43.315682" lon="1.783195">
        <ele>267.8</ele>
        <time>2015-08-04T15:25:05Z</time>
      </trkpt>
      <trkpt lat="43.315762" lon="1.783078">
        <ele>267.0</ele>
        <time>2015-08-04T15:25:07Z</time>
      </trkpt>
      <trkpt lat="43.315835" lon="1.782946">
        <ele>266.3</ele>
        <time>2015-08-04T15:25:09Z</time>
      </trkpt>
      <trkpt lat="43.315906" lon="1.782815">
        <ele>265.6</ele>
        <time>2015-08-04T15:25:11Z</time>
      </trkpt>
      <trkpt lat="43.315971" lon="1.782686">
        <ele>265.1</ele>
        <time>2015-08-04T15:25:13Z</time>
      </trkpt>
      <trkpt lat="43.316033" lon="1.782561">
        <ele>264.5</ele>
        <time>2015-08-04T15:25:15Z</time>
      </trkpt>
      <trkpt lat="43.316089" lon="1.782451">
        <ele>264.0</ele>
        <time>2015-08-04T15:25:17Z</time>
      </trkpt>
      <trkpt lat="43.316163" lon="1.782300">
        <ele>262.1</ele>
        <time>2015-08-04T15:25:20Z</time>
      </trkpt>
      <trkpt lat="43.316230" lon="1.782144">
        <ele>260.5</ele>
        <time>2015-08-04T15:25:23Z</time>
      </trkpt>
      <trkpt lat="43.316277" lon="1.781984">
        <ele>259.2</ele>
        <time>2015-08-04T15:25:26Z</time>
      </trkpt>
      <trkpt lat="43.316305" lon="1.781827">
        <ele>258.0</ele>
        <time>2015-08-04T15:25:30Z</time>
      </trkpt>
      <trkpt lat="43.316334" lon="1.781691">
        <ele>257.5</ele>
        <time>2015-08-04T15:25:35Z</time>
      </trkpt>
      <trkpt lat="43.316351" lon="1.781676">
        <ele>257.6</ele>
        <time>2015-08-04T15:25:56Z</time>
      </trkpt>
      <trkpt lat="43.316385" lon="1.781638">
        <ele>255.2</ele>
        <time>2015-08-04T15:26:36Z</time>
      </trkpt>
      <trkpt lat="43.316467" lon="1.781716">
        <ele>256.0</ele>
        <time>2015-08-04T15:26:41Z</time>
      </trkpt>
      <trkpt lat="43.316553" lon="1.781783">
        <ele>256.6</ele>
        <time>2015-08-04T15:26:44Z</time>
      </trkpt>
      <trkpt lat="43.316632" lon="1.781855">
        <ele>256.6</ele>
        <time>2015-08-04T15:26:47Z</time>
      </trkpt>
      <trkpt lat="43.316709" lon="1.781928">
        <ele>256.2</ele>
        <time>2015-08-04T15:26:50Z</time>
      </trkpt>
      <trkpt lat="43.316788" lon="1.782008">
        <ele>255.4</ele>
        <time>2015-08-04T15:26:53Z</time>
      </trkpt>
      <trkpt lat="43.316880" lon="1.782092">
        <ele>254.7</ele>
        <time>2015-08-04T15:26:56Z</time>
      </trkpt>
      <trkpt lat="43.316958" lon="1.782168">
        <ele>254.6</ele>
        <time>2015-08-04T15:26:59Z</time>
      </trkpt>
      <trkpt lat="43.317021" lon="1.782272">
        <ele>254.5</ele>
        <time>2015-08-04T15:27:03Z</time>
      </trkpt>
      <trkpt lat="43.317017" lon="1.782394">
        <ele>256.8</ele>
        <time>2015-08-04T15:27:08Z</time>
      </trkpt>
      <trkpt lat="43.316933" lon="1.782493">
        <ele>259.0</ele>
        <time>2015-08-04T15:27:13Z</time>
      </trkpt>
      <trkpt lat="43.316866" lon="1.782604">
        <ele>260.0</ele>
        <time>2015-08-04T15:27:18Z</time>
      </trkpt>
      <trkpt lat="43.316788" lon="1.782696">
        <ele>260.5</ele>
        <time>2015-08-04T15:27:22Z</time>
      </trkpt>
      <trkpt lat="43.316730" lon="1.782808">
        <ele>262.1</ele>
        <time>2015-08-04T15:27:26Z</time>
      </trkpt>
      <trkpt lat="43.316664" lon="1.782911">
        <ele>260.2</ele>
        <time>2015-08-04T15:27:30Z</time>
      </trkpt>
      <trkpt lat="43.316618" lon="1.783031">
        <ele>255.8</ele>
        <time>2015-08-04T15:27:35Z</time>
      </trkpt>
      <trkpt lat="43.316588" lon="1.783162">
        <ele>253.4</ele>
        <time>2015-08-04T15:27:40Z</time>
      </trkpt>
      <trkpt lat="43.316579" lon="1.783284">
        <ele>251.7</ele>
        <time>2015-08-04T15:27:45Z</time>
      </trkpt>
      <trkpt lat="43.316574" lon="1.783418">
        <ele>250.0</ele>
        <time>2015-08-04T15:27:50Z</time>
      </trkpt>
      <trkpt lat="43.316575" lon="1.783545">
        <ele>248.1</ele>
        <time>2015-08-04T15:27:54Z</time>
      </trkpt>
      <trkpt lat="43.316606" lon="1.783711">
        <ele>245.6</ele>
        <time>2015-08-04T15:27:58Z</time>
      </trkpt>
      <trkpt lat="43.316645" lon="1.783862">
        <ele>244.0</ele>
        <time>2015-08-04T15:28:01Z</time>
      </trkpt>
      <trkpt lat="43.316677" lon="1.783999">
        <ele>242.6</ele>
        <time>2015-08-04T15:28:15Z</time>
      </trkpt>
      <trkpt lat="43.316720" lon="1.784113">
        <ele>241.3</ele>
        <time>2015-08-04T15:28:17Z</time>
      </trkpt>
      <trkpt lat="43.316789" lon="1.784245">
        <ele>240.0</ele>
        <time>2015-08-04T15:28:19Z</time>
      </trkpt>
      <trkpt lat="43.316878" lon="1.784382">
        <ele>239.0</ele>
        <time>2015-08-04T15:28:21Z</time>
      </trkpt>
      <trkpt lat="43.316976" lon="1.784543">
        <ele>237.5</ele>
        <time>2015-08-04T15:28:23Z</time>
      </trkpt>
      <trkpt lat="43.317081" lon="1.784719">
        <ele>235.9</ele>
        <time>2015-08-04T15:28:25Z</time>
      </trkpt>
      <trkpt lat="43.317195" lon="1.784894">
        <ele>235.1</ele>
        <time>2015-08-04T15:28:27Z</time>
      </trkpt>
      <trkpt lat="43.317314" lon="1.785041">
        <ele>233.7</ele>
        <time>2015-08-04T15:28:29Z</time>
      </trkpt>
      <trkpt lat="43.317406" lon="1.785136">
        <ele>233.1</ele>
        <time>2015-08-04T15:28:31Z</time>
      </trkpt>
      <trkpt lat="43.317496" lon="1.785211">
        <ele>232.1</ele>
        <time>2015-08-04T15:28:34Z</time>
      </trkpt>
      <trkpt lat="43.317558" lon="1.785294">
        <ele>230.8</ele>
        <time>2015-08-04T15:28:38Z</time>
      </trkpt>
      <trkpt lat="43.317588" lon="1.785442">
        <ele>229.3</ele>
        <time>2015-08-04T15:28:42Z</time>
      </trkpt>
      <trkpt lat="43.317589" lon="1.785558">
        <ele>227.7</ele>
        <time>2015-08-04T15:28:47Z</time>
      </trkpt>
      <trkpt lat="43.317616" lon="1.785662">
        <ele>226.1</ele>
        <time>2015-08-04T15:29:11Z</time>
      </trkpt>
      <trkpt lat="43.317704" lon="1.785782">
        <ele>225.7</ele>
        <time>2015-08-04T15:29:15Z</time>
      </trkpt>
      <trkpt lat="43.317772" lon="1.785859">
        <ele>225.9</ele>
        <time>2015-08-04T15:29:19Z</time>
      </trkpt>
      <trkpt lat="43.317854" lon="1.785928">
        <ele>226.9</ele>
        <time>2015-08-04T15:29:23Z</time>
      </trkpt>
      <trkpt lat="43.317933" lon="1.785988">
        <ele>228.4</ele>
        <time>2015-08-04T15:29:26Z</time>
      </trkpt>
      <trkpt lat="43.318008" lon="1.786062">
        <ele>229.7</ele>
        <time>2015-08-04T15:29:29Z</time>
      </trkpt>
      <trkpt lat="43.318105" lon="1.786128">
        <ele>230.8</ele>
        <time>2015-08-04T15:29:32Z</time>
      </trkpt>
      <trkpt lat="43.318215" lon="1.786160">
        <ele>231.6</ele>
        <time>2015-08-04T15:29:36Z</time>
      </trkpt>
      <trkpt lat="43.318330" lon="1.786019">
        <ele>235.9</ele>
        <time>2015-08-04T15:29:47Z</time>
      </trkpt>
      <trkpt lat="43.318474" lon="1.785910">
        <ele>241.9</ele>
        <time>2015-08-04T15:30:46Z</time>
      </trkpt>
      <trkpt lat="43.318568" lon="1.785875">
        <ele>243.1</ele>
        <time>2015-08-04T15:30:52Z</time>
      </trkpt>
      <trkpt lat="43.318664" lon="1.785851">
        <ele>244.9</ele>
        <time>2015-08-04T15:30:57Z</time>
      </trkpt>
      <trkpt lat="43.318753" lon="1.785848">
        <ele>244.9</ele>
        <time>2015-08-04T15:31:02Z</time>
      </trkpt>
      <trkpt lat="43.318852" lon="1.785872">
        <ele>243.1</ele>
        <time>2015-08-04T15:31:07Z</time>
      </trkpt>
      <trkpt lat="43.318962" lon="1.785911">
        <ele>241.9</ele>
        <time>2015-08-04T15:31:12Z</time>
      </trkpt>
      <trkpt lat="43.319062" lon="1.785929">
        <ele>242.0</ele>
        <time>2015-08-04T15:31:16Z</time>
      </trkpt>
      <trkpt lat="43.319158" lon="1.786020">
        <ele>241.2</ele>
        <time>2015-08-04T15:31:22Z</time>
      </trkpt>
      <trkpt lat="43.319226" lon="1.786166">
        <ele>241.3</ele>
        <time>2015-08-04T15:31:29Z</time>
      </trkpt>
      <trkpt lat="43.319338" lon="1.786211">
        <ele>241.4</ele>
        <time>2015-08-04T15:31:36Z</time>
      </trkpt>
      <trkpt lat="43.319432" lon="1.786232">
        <ele>241.4</ele>
        <time>2015-08-04T15:31:40Z</time>
      </trkpt>
      <trkpt lat="43.319540" lon="1.786256">
        <ele>241.6</ele>
        <time>2015-08-04T15:31:44Z</time>
      </trkpt>
      <trkpt lat="43.319660" lon="1.786278">
        <ele>241.7</ele>
        <time>2015-08-04T15:31:49Z</time>
      </trkpt>
      <trkpt lat="43.319769" lon="1.786283">
        <ele>243.1</ele>
        <time>2015-08-04T15:31:54Z</time>
      </trkpt>
      <trkpt lat="43.319875" lon="1.786290">
        <ele>243.4</ele>
        <time>2015-08-04T15:31:58Z</time>
      </trkpt>
      <trkpt lat="43.319991" lon="1.786276">
        <ele>245.0</ele>
        <time>2015-08-04T15:32:02Z</time>
      </trkpt>
      <trkpt lat="43.320092" lon="1.786246">
        <ele>246.5</ele>
        <time>2015-08-04T15:32:06Z</time>
      </trkpt>
      <trkpt lat="43.320190" lon="1.786205">
        <ele>247.9</ele>
        <time>2015-08-04T15:32:10Z</time>
      </trkpt>
      <trkpt lat="43.320290" lon="1.786142">
        <ele>248.9</ele>
        <time>2015-08-04T15:32:15Z</time>
      </trkpt>
      <trkpt lat="43.320389" lon="1.786078">
        <ele>249.2</ele>
        <time>2015-08-04T15:32:20Z</time>
      </trkpt>
      <trkpt lat="43.320494" lon="1.786068">
        <ele>249.7</ele>
        <time>2015-08-04T15:32:25Z</time>
      </trkpt>
      <trkpt lat="43.320500" lon="1.786210">
        <ele>250.6</ele>
        <time>2015-08-04T15:32:31Z</time>
      </trkpt>
      <trkpt lat="43.320503" lon="1.786338">
        <ele>251.5</ele>
        <time>2015-08-04T15:32:36Z</time>
      </trkpt>
      <trkpt lat="43.320493" lon="1.786463">
        <ele>251.8</ele>
        <time>2015-08-04T15:32:41Z</time>
      </trkpt>
      <trkpt lat="43.320495" lon="1.786608">
        <ele>253.6</ele>
        <time>2015-08-04T15:32:47Z</time>
      </trkpt>
      <trkpt lat="43.320496" lon="1.786741">
        <ele>255.1</ele>
        <time>2015-08-04T15:32:52Z</time>
      </trkpt>
      <trkpt lat="43.320532" lon="1.786871">
        <ele>256.5</ele>
        <time>2015-08-04T15:32:58Z</time>
      </trkpt>
      <trkpt lat="43.320606" lon="1.786922">
        <ele>258.7</ele>
        <time>2015-08-04T15:33:04Z</time>
      </trkpt>
      <trkpt lat="43.320689" lon="1.786989">
        <ele>259.2</ele>
        <time>2015-08-04T15:33:22Z</time>
      </trkpt>
      <trkpt lat="43.320773" lon="1.787034">
        <ele>260.4</ele>
        <time>2015-08-04T15:33:28Z</time>
      </trkpt>
      <trkpt lat="43.320869" lon="1.787088">
        <ele>262.1</ele>
        <time>2015-08-04T15:33:35Z</time>
      </trkpt>
      <trkpt lat="43.320959" lon="1.787124">
        <ele>264.4</ele>
        <time>2015-08-04T15:33:41Z</time>
      </trkpt>
      <trkpt lat="43.321059" lon="1.787174">
        <ele>267.0</ele>
        <time>2015-08-04T15:33:51Z</time>
      </trkpt>
      <trkpt lat="43.321141" lon="1.787227">
        <ele>268.6</ele>
        <time>2015-08-04T15:34:01Z</time>
      </trkpt>
      <trkpt lat="43.321241" lon="1.787282">
        <ele>270.8</ele>
        <time>2015-08-04T15:34:14Z</time>
      </trkpt>
      <trkpt lat="43.321329" lon="1.787318">
        <ele>271.2</ele>
        <time>2015-08-04T15:34:24Z</time>
      </trkpt>
      <trkpt lat="43.321406" lon="1.787365">
        <ele>273.0</ele>
        <time>2015-08-04T15:34:35Z</time>
      </trkpt>
      <trkpt lat="43.321492" lon="1.787417">
        <ele>273.3</ele>
        <time>2015-08-04T15:34:47Z</time>
      </trkpt>
      <trkpt lat="43.321576" lon="1.787473">
        <ele>273.9</ele>
        <time>2015-08-04T15:34:57Z</time>
      </trkpt>
      <trkpt lat="43.321654" lon="1.787550">
        <ele>276.9</ele>
        <time>2015-08-04T15:35:05Z</time>
      </trkpt>
      <trkpt lat="43.321751" lon="1.787640">
        <ele>279.3</ele>
        <time>2015-08-04T15:35:22Z</time>
      </trkpt>
      <trkpt lat="43.321843" lon="1.787721">
        <ele>279.9</ele>
        <time>2015-08-04T15:35:33Z</time>
      </trkpt>
      <trkpt lat="43.321928" lon="1.787676">
        <ele>280.0</ele>
        <time>2015-08-04T15:35:44Z</time>
      </trkpt>
      <trkpt lat="43.321988" lon="1.787572">
        <ele>279.9</ele>
        <time>2015-08-04T15:35:54Z</time>
      </trkpt>
      <trkpt lat="43.321997" lon="1.787503">
        <ele>279.9</ele>
        <time>2015-08-04T15:36:41Z</time>
      </trkpt>
      <trkpt lat="43.322060" lon="1.787360">
        <ele>279.8</ele>
        <time>2015-08-04T15:36:47Z</time>
      </trkpt>
      <trkpt lat="43.322129" lon="1.787241">
        <ele>279.6</ele>
        <time>2015-08-04T15:36:51Z</time>
      </trkpt>
      <trkpt lat="43.322175" lon="1.787135">
        <ele>280.1</ele>
        <time>2015-08-04T15:36:54Z</time>
      </trkpt>
      <trkpt lat="43.322235" lon="1.787021">
        <ele>279.4</ele>
        <time>2015-08-04T15:36:57Z</time>
      </trkpt>
      <trkpt lat="43.322276" lon="1.786910">
        <ele>279.4</ele>
        <time>2015-08-04T15:37:00Z</time>
      </trkpt>
      <trkpt lat="43.322324" lon="1.786802">
        <ele>279.6</ele>
        <time>2015-08-04T15:37:05Z</time>
      </trkpt>
      <trkpt lat="43.322385" lon="1.786726">
        <ele>280.6</ele>
        <time>2015-08-04T15:37:38Z</time>
      </trkpt>
      <trkpt lat="43.322442" lon="1.786588">
        <ele>280.3</ele>
        <time>2015-08-04T15:37:42Z</time>
      </trkpt>
      <trkpt lat="43.322509" lon="1.786447">
        <ele>279.5</ele>
        <time>2015-08-04T15:37:45Z</time>
      </trkpt>
      <trkpt lat="43.322567" lon="1.786338">
        <ele>279.2</ele>
        <time>2015-08-04T15:37:47Z</time>
      </trkpt>
      <trkpt lat="43.322629" lon="1.786222">
        <ele>278.8</ele>
        <time>2015-08-04T15:37:49Z</time>
      </trkpt>
      <trkpt lat="43.322694" lon="1.786104">
        <ele>278.9</ele>
        <time>2015-08-04T15:37:51Z</time>
      </trkpt>
      <trkpt lat="43.322761" lon="1.785982">
        <ele>278.6</ele>
        <time>2015-08-04T15:37:53Z</time>
      </trkpt>
      <trkpt lat="43.322826" lon="1.785860">
        <ele>278.4</ele>
        <time>2015-08-04T15:37:55Z</time>
      </trkpt>
      <trkpt lat="43.322886" lon="1.785758">
        <ele>278.7</ele>
        <time>2015-08-04T15:37:57Z</time>
      </trkpt>
      <trkpt lat="43.322967" lon="1.785621">
        <ele>277.7</ele>
        <time>2015-08-04T15:38:00Z</time>
      </trkpt>
      <trkpt lat="43.323021" lon="1.785525">
        <ele>277.4</ele>
        <time>2015-08-04T15:38:03Z</time>
      </trkpt>
      <trkpt lat="43.323081" lon="1.785411">
        <ele>277.1</ele>
        <time>2015-08-04T15:38:10Z</time>
      </trkpt>
      <trkpt lat="43.323128" lon="1.785361">
        <ele>278.3</ele>
        <time>2015-08-04T15:39:10Z</time>
      </trkpt>
      <trkpt lat="43.323196" lon="1.785237">
        <ele>278.2</ele>
        <time>2015-08-04T15:39:14Z</time>
      </trkpt>
      <trkpt lat="43.323246" lon="1.785132">
        <ele>278.5</ele>
        <time>2015-08-04T15:39:17Z</time>
      </trkpt>
      <trkpt lat="43.323305" lon="1.785041">
        <ele>278.6</ele>
        <time>2015-08-04T15:39:20Z</time>
      </trkpt>
      <trkpt lat="43.323364" lon="1.784918">
        <ele>278.7</ele>
        <time>2015-08-04T15:39:24Z</time>
      </trkpt>
      <trkpt lat="43.323445" lon="1.784848">
        <ele>279.3</ele>
        <time>2015-08-04T15:39:28Z</time>
      </trkpt>
      <trkpt lat="43.323553" lon="1.784783">
        <ele>278.9</ele>
        <time>2015-08-04T15:39:31Z</time>
      </trkpt>
      <trkpt lat="43.323669" lon="1.784725">
        <ele>277.3</ele>
        <time>2015-08-04T15:39:33Z</time>
      </trkpt>
      <trkpt lat="43.323741" lon="1.784695">
        <ele>275.9</ele>
        <time>2015-08-04T15:39:34Z</time>
      </trkpt>
      <trkpt lat="43.323901" lon="1.784625">
        <ele>272.7</ele>
        <time>2015-08-04T15:39:36Z</time>
      </trkpt>
      <trkpt lat="43.324061" lon="1.784556">
        <ele>270.6</ele>
        <time>2015-08-04T15:39:38Z</time>
      </trkpt>
      <trkpt lat="43.324177" lon="1.784492">
        <ele>269.7</ele>
        <time>2015-08-04T15:39:40Z</time>
      </trkpt>
      <trkpt lat="43.324274" lon="1.784454">
        <ele>268.6</ele>
        <time>2015-08-04T15:39:42Z</time>
      </trkpt>
      <trkpt lat="43.324369" lon="1.784500">
        <ele>267.0</ele>
        <time>2015-08-04T15:39:44Z</time>
      </trkpt>
      <trkpt lat="43.324470" lon="1.784583">
        <ele>265.8</ele>
        <time>2015-08-04T15:39:46Z</time>
      </trkpt>
      <trkpt lat="43.324498" lon="1.784650">
        <ele>266.2</ele>
        <time>2015-08-04T15:45:08Z</time>
      </trkpt>
      <trkpt lat="43.324487" lon="1.784799">
        <ele>265.1</ele>
        <time>2015-08-04T15:45:13Z</time>
      </trkpt>
      <trkpt lat="43.324502" lon="1.784970">
        <ele>263.9</ele>
        <time>2015-08-04T15:45:17Z</time>
      </trkpt>
      <trkpt lat="43.324504" lon="1.785159">
        <ele>262.8</ele>
        <time>2015-08-04T15:45:20Z</time>
      </trkpt>
      <trkpt lat="43.324504" lon="1.785279">
        <ele>261.8</ele>
        <time>2015-08-04T15:45:22Z</time>
      </trkpt>
      <trkpt lat="43.324498" lon="1.785444">
        <ele>260.0</ele>
        <time>2015-08-04T15:45:25Z</time>
      </trkpt>
      <trkpt lat="43.324492" lon="1.785572">
        <ele>258.8</ele>
        <time>2015-08-04T15:45:27Z</time>
      </trkpt>
      <trkpt lat="43.324487" lon="1.785706">
        <ele>257.7</ele>
        <time>2015-08-04T15:45:29Z</time>
      </trkpt>
      <trkpt lat="43.324482" lon="1.785829">
        <ele>256.6</ele>
        <time>2015-08-04T15:45:31Z</time>
      </trkpt>
      <trkpt lat="43.324480" lon="1.785950">
        <ele>255.5</ele>
        <time>2015-08-04T15:45:33Z</time>
      </trkpt>
      <trkpt lat="43.324481" lon="1.786070">
        <ele>254.7</ele>
        <time>2015-08-04T15:45:35Z</time>
      </trkpt>
      <trkpt lat="43.324475" lon="1.786246">
        <ele>254.3</ele>
        <time>2015-08-04T15:45:38Z</time>
      </trkpt>
      <trkpt lat="43.324456" lon="1.786428">
        <ele>253.4</ele>
        <time>2015-08-04T15:45:41Z</time>
      </trkpt>
      <trkpt lat="43.324438" lon="1.786565">
        <ele>252.4</ele>
        <time>2015-08-04T15:45:43Z</time>
      </trkpt>
      <trkpt lat="43.324422" lon="1.786703">
        <ele>251.7</ele>
        <time>2015-08-04T15:45:45Z</time>
      </trkpt>
      <trkpt lat="43.324402" lon="1.786837">
        <ele>251.0</ele>
        <time>2015-08-04T15:45:47Z</time>
      </trkpt>
      <trkpt lat="43.324380" lon="1.786995">
        <ele>250.2</ele>
        <time>2015-08-04T15:45:50Z</time>
      </trkpt>
      <trkpt lat="43.324357" lon="1.787115">
        <ele>248.5</ele>
        <time>2015-08-04T15:46:10Z</time>
      </trkpt>
      <trkpt lat="43.324356" lon="1.787266">
        <ele>243.3</ele>
        <time>2015-08-04T15:47:49Z</time>
      </trkpt>
      <trkpt lat="43.324332" lon="1.787386">
        <ele>242.2</ele>
        <time>2015-08-04T15:48:09Z</time>
      </trkpt>
      <trkpt lat="43.324331" lon="1.787562">
        <ele>241.5</ele>
        <time>2015-08-04T15:48:23Z</time>
      </trkpt>
      <trkpt lat="43.324316" lon="1.787699">
        <ele>240.5</ele>
        <time>2015-08-04T15:48:28Z</time>
      </trkpt>
      <trkpt lat="43.324288" lon="1.787712">
        <ele>237.3</ele>
        <time>2015-08-04T15:49:46Z</time>
      </trkpt>
      <trkpt lat="43.324207" lon="1.787815">
        <ele>237.4</ele>
        <time>2015-08-04T15:50:06Z</time>
      </trkpt>
      <trkpt lat="43.324160" lon="1.787937">
        <ele>237.3</ele>
        <time>2015-08-04T15:50:11Z</time>
      </trkpt>
      <trkpt lat="43.324137" lon="1.788064">
        <ele>237.5</ele>
        <time>2015-08-04T15:50:16Z</time>
      </trkpt>
      <trkpt lat="43.324114" lon="1.788182">
        <ele>236.5</ele>
        <time>2015-08-04T15:50:24Z</time>
      </trkpt>
      <trkpt lat="43.324083" lon="1.788298">
        <ele>236.3</ele>
        <time>2015-08-04T15:50:35Z</time>
      </trkpt>
      <trkpt lat="43.324089" lon="1.788419">
        <ele>237.8</ele>
        <time>2015-08-04T15:50:43Z</time>
      </trkpt>
      <trkpt lat="43.324095" lon="1.788543">
        <ele>238.5</ele>
        <time>2015-08-04T15:50:50Z</time>
      </trkpt>
      <trkpt lat="43.324141" lon="1.788668">
        <ele>238.0</ele>
        <time>2015-08-04T15:51:04Z</time>
      </trkpt>
      <trkpt lat="43.324101" lon="1.788831">
        <ele>237.9</ele>
        <time>2015-08-04T15:51:12Z</time>
      </trkpt>
      <trkpt lat="43.324042" lon="1.788976">
        <ele>237.9</ele>
        <time>2015-08-04T15:51:16Z</time>
      </trkpt>
      <trkpt lat="43.323972" lon="1.789081">
        <ele>238.4</ele>
        <time>2015-08-04T15:51:20Z</time>
      </trkpt>
      <trkpt lat="43.323912" lon="1.789179">
        <ele>238.3</ele>
        <time>2015-08-04T15:51:25Z</time>
      </trkpt>
      <trkpt lat="43.323861" lon="1.789295">
        <ele>238.8</ele>
        <time>2015-08-04T15:51:30Z</time>
      </trkpt>
      <trkpt lat="43.323792" lon="1.789406">
        <ele>239.7</ele>
        <time>2015-08-04T15:51:34Z</time>
      </trkpt>
      <trkpt lat="43.323733" lon="1.789494">
        <ele>241.1</ele>
        <time>2015-08-04T15:51:39Z</time>
      </trkpt>
      <trkpt lat="43.323709" lon="1.789584">
        <ele>243.5</ele>
        <time>2015-08-04T15:51:50Z</time>
      </trkpt>
      <trkpt lat="43.323652" lon="1.789706">
        <ele>243.8</ele>
        <time>2015-08-04T15:51:56Z</time>
      </trkpt>
      <trkpt lat="43.323597" lon="1.789832">
        <ele>244.5</ele>
        <time>2015-08-04T15:52:00Z</time>
      </trkpt>
      <trkpt lat="43.323540" lon="1.789964">
        <ele>245.1</ele>
        <time>2015-08-04T15:52:04Z</time>
      </trkpt>
      <trkpt lat="43.323474" lon="1.790093">
        <ele>245.3</ele>
        <time>2015-08-04T15:52:08Z</time>
      </trkpt>
      <trkpt lat="43.323419" lon="1.790199">
        <ele>246.7</ele>
        <time>2015-08-04T15:52:12Z</time>
      </trkpt>
      <trkpt lat="43.323443" lon="1.790324">
        <ele>247.1</ele>
        <time>2015-08-04T15:52:17Z</time>
      </trkpt>
      <trkpt lat="43.323426" lon="1.790474">
        <ele>246.9</ele>
        <time>2015-08-04T15:52:22Z</time>
      </trkpt>
      <trkpt lat="43.323425" lon="1.790599">
        <ele>246.6</ele>
        <time>2015-08-04T15:52:26Z</time>
      </trkpt>
      <trkpt lat="43.323422" lon="1.790733">
        <ele>248.1</ele>
        <time>2015-08-04T15:52:30Z</time>
      </trkpt>
      <trkpt lat="43.323397" lon="1.790869">
        <ele>248.9</ele>
        <time>2015-08-04T15:52:35Z</time>
      </trkpt>
    </trkseg>
  </trk>
</gpx>

